sensor_id;sensor_type;location;lat;lon;timestamp;pressure;altitude;pressure_sealevel;temperature;humidity
70437;BME280;57877;39.750;-104.894;2024-02-26T00:01:35;83081.66;;;14.09;7.99
70437;BME280;57877;39.750;-104.894;2024-02-26T00:04:01;83095.77;;;15.19;7.66
70437;BME280;57877;39.750;-104.894;2024-02-26T00:06:27;83075.73;;;13.20;8.49
70437;BME280;57877;39.750;-104.894;2024-02-26T00:08:53;83083.55;;;13.55;8.56
70437;BME280;57877;39.750;-104.894;2024-02-26T00:11:19;83077.49;;;13.67;8.58
70437;BME280;57877;39.750;-104.894;2024-02-26T00:13:45;83078.52;;;12.80;8.92
70437;BME280;57877;39.750;-104.894;2024-02-26T00:16:11;83080.15;;;13.29;8.85
70437;BME280;57877;39.750;-104.894;2024-02-26T00:18:37;83078.66;;;12.75;8.96
70437;BME280;57877;39.750;-104.894;2024-02-26T00:21:03;83074.51;;;13.98;8.34
70437;BME280;57877;39.750;-104.894;2024-02-26T00:23:34;83081.59;;;13.77;8.49
70437;BME280;57877;39.750;-104.894;2024-02-26T00:25:55;83093.58;;;12.30;9.17
70437;BME280;57877;39.750;-104.894;2024-02-26T00:28:21;83069.91;;;11.86;9.33
70437;BME280;57877;39.750;-104.894;2024-02-26T00:30:47;83086.42;;;11.47;9.70
70437;BME280;57877;39.750;-104.894;2024-02-26T00:33:13;83086.05;;;12.45;9.17
70437;BME280;57877;39.750;-104.894;2024-02-26T00:35:39;83093.96;;;13.19;8.99
70437;BME280;57877;39.750;-104.894;2024-02-26T00:38:05;83089.48;;;14.02;8.74
70437;BME280;57877;39.750;-104.894;2024-02-26T00:40:31;83095.19;;;12.89;8.97
70437;BME280;57877;39.750;-104.894;2024-02-26T00:42:57;83097.59;;;12.32;9.22
70437;BME280;57877;39.750;-104.894;2024-02-26T00:45:23;83088.44;;;12.32;9.39
70437;BME280;57877;39.750;-104.894;2024-02-26T00:47:48;83098.26;;;11.92;9.75
70437;BME280;57877;39.750;-104.894;2024-02-26T00:50:15;83091.19;;;12.18;9.97
70437;BME280;57877;39.750;-104.894;2024-02-26T00:52:40;83090.97;;;12.19;9.84
70437;BME280;57877;39.750;-104.894;2024-02-26T00:55:08;83095.12;;;12.20;10.14
70437;BME280;57877;39.750;-104.894;2024-02-26T00:57:32;83094.82;;;11.62;10.37
70437;BME280;57877;39.750;-104.894;2024-02-26T00:59:59;83096.79;;;12.04;10.18
70437;BME280;57877;39.750;-104.894;2024-02-26T01:02:24;83096.86;;;12.06;10.05
70437;BME280;57877;39.750;-104.894;2024-02-26T01:04:50;83101.83;;;11.66;10.36
70437;BME280;57877;39.750;-104.894;2024-02-26T01:07:16;83100.36;;;12.51;9.94
70437;BME280;57877;39.750;-104.894;2024-02-26T01:09:42;83110.72;;;12.22;10.10
70437;BME280;57877;39.750;-104.894;2024-02-26T01:12:08;83094.62;;;11.91;10.22
70437;BME280;57877;39.750;-104.894;2024-02-26T01:14:34;83102.90;;;12.32;10.10
70437;BME280;57877;39.750;-104.894;2024-02-26T01:17:01;83106.60;;;11.61;10.40
70437;BME280;57877;39.750;-104.894;2024-02-26T01:19:26;83104.00;;;11.85;10.25
70437;BME280;57877;39.750;-104.894;2024-02-26T01:21:52;83111.14;;;12.59;10.09
70437;BME280;57877;39.750;-104.894;2024-02-26T01:24:18;83116.01;;;11.71;10.46
70437;BME280;57877;39.750;-104.894;2024-02-26T01:26:44;83116.89;;;12.68;10.07
70437;BME280;57877;39.750;-104.894;2024-02-26T01:29:10;83110.81;;;11.84;10.36
70437;BME280;57877;39.750;-104.894;2024-02-26T01:31:36;83117.68;;;13.51;9.72
70437;BME280;57877;39.750;-104.894;2024-02-26T01:34:02;83101.84;;;12.08;9.99
70437;BME280;57877;39.750;-104.894;2024-02-26T01:36:28;83119.59;;;12.85;10.38
70437;BME280;57877;39.750;-104.894;2024-02-26T01:38:54;83103.92;;;12.80;10.02
70437;BME280;57877;39.750;-104.894;2024-02-26T01:41:20;83122.12;;;13.19;9.89
70437;BME280;57877;39.750;-104.894;2024-02-26T01:43:46;83128.35;;;13.05;9.64
70437;BME280;57877;39.750;-104.894;2024-02-26T01:46:14;83120.46;;;13.60;9.63
70437;BME280;57877;39.750;-104.894;2024-02-26T01:48:37;83108.50;;;11.75;9.94
70437;BME280;57877;39.750;-104.894;2024-02-26T01:51:04;83117.93;;;11.78;10.16
70437;BME280;57877;39.750;-104.894;2024-02-26T01:53:29;83114.45;;;14.08;9.26
70437;BME280;57877;39.750;-104.894;2024-02-26T01:55:55;83124.91;;;13.31;9.62
70437;BME280;57877;39.750;-104.894;2024-02-26T01:58:21;83126.69;;;12.48;10.09
70437;BME280;57877;39.750;-104.894;2024-02-26T02:00:47;83132.00;;;12.65;9.92
70437;BME280;57877;39.750;-104.894;2024-02-26T02:03:13;83133.76;;;11.78;10.40
70437;BME280;57877;39.750;-104.894;2024-02-26T02:05:39;83123.76;;;12.21;10.32
70437;BME280;57877;39.750;-104.894;2024-02-26T02:08:06;83137.68;;;12.48;10.07
70437;BME280;57877;39.750;-104.894;2024-02-26T02:10:31;83143.92;;;12.56;9.98
70437;BME280;57877;39.750;-104.894;2024-02-26T02:12:58;83136.02;;;12.59;10.05
70437;BME280;57877;39.750;-104.894;2024-02-26T02:15:23;83141.80;;;13.50;9.62
70437;BME280;57877;39.750;-104.894;2024-02-26T02:17:48;83132.32;;;13.39;9.59
70437;BME280;57877;39.750;-104.894;2024-02-26T02:20:17;83143.72;;;13.14;9.70
70437;BME280;57877;39.750;-104.894;2024-02-26T02:22:40;83141.28;;;12.88;9.89
70437;BME280;57877;39.750;-104.894;2024-02-26T02:25:07;83131.49;;;12.90;9.80
70437;BME280;57877;39.750;-104.894;2024-02-26T02:27:32;83142.61;;;13.19;9.72
70437;BME280;57877;39.750;-104.894;2024-02-26T02:29:58;83143.24;;;13.96;9.42
70437;BME280;57877;39.750;-104.894;2024-02-26T02:32:25;83145.91;;;13.79;9.34
70437;BME280;57877;39.750;-104.894;2024-02-26T02:34:50;83146.33;;;12.75;9.82
70437;BME280;57877;39.750;-104.894;2024-02-26T02:37:16;83155.56;;;13.00;9.65
70437;BME280;57877;39.750;-104.894;2024-02-26T02:39:42;83149.29;;;13.29;9.61
70437;BME280;57877;39.750;-104.894;2024-02-26T02:42:08;83149.40;;;11.02;10.69
70437;BME280;57877;39.750;-104.894;2024-02-26T02:44:34;83155.04;;;11.77;10.46
70437;BME280;57877;39.750;-104.894;2024-02-26T02:47:00;83151.91;;;12.33;10.21
70437;BME280;57877;39.750;-104.894;2024-02-26T02:49:26;83147.33;;;12.15;10.44
70437;BME280;57877;39.750;-104.894;2024-02-26T02:51:52;83146.57;;;13.05;9.88
70437;BME280;57877;39.750;-104.894;2024-02-26T02:54:18;83151.46;;;12.56;10.17
70437;BME280;57877;39.750;-104.894;2024-02-26T02:56:44;83150.56;;;13.25;9.72
70437;BME280;57877;39.750;-104.894;2024-02-26T02:59:10;83148.08;;;11.93;10.36
70437;BME280;57877;39.750;-104.894;2024-02-26T03:01:36;83144.40;;;12.19;10.41
70437;BME280;57877;39.750;-104.894;2024-02-26T03:04:02;83146.00;;;13.07;9.90
70437;BME280;57877;39.750;-104.894;2024-02-26T03:06:28;83145.40;;;13.56;9.71
70437;BME280;57877;39.750;-104.894;2024-02-26T03:08:54;83143.33;;;11.20;10.53
70437;BME280;57877;39.750;-104.894;2024-02-26T03:11:20;83145.61;;;13.21;9.88
70437;BME280;57877;39.750;-104.894;2024-02-26T03:13:46;83146.03;;;12.68;10.04
70437;BME280;57877;39.750;-104.894;2024-02-26T03:16:12;83139.93;;;13.48;9.86
70437;BME280;57877;39.750;-104.894;2024-02-26T03:18:39;83143.70;;;11.52;10.59
70437;BME280;57877;39.750;-104.894;2024-02-26T03:21:04;83146.82;;;11.85;10.41
70437;BME280;57877;39.750;-104.894;2024-02-26T03:23:30;83143.20;;;11.82;10.66
70437;BME280;57877;39.750;-104.894;2024-02-26T03:25:56;83144.08;;;11.54;10.79
70437;BME280;57877;39.750;-104.894;2024-02-26T03:28:22;83145.24;;;11.14;11.21
70437;BME280;57877;39.750;-104.894;2024-02-26T03:30:48;83146.81;;;11.55;11.12
70437;BME280;57877;39.750;-104.894;2024-02-26T03:33:14;83146.33;;;11.56;11.19
70437;BME280;57877;39.750;-104.894;2024-02-26T03:35:40;83152.18;;;11.34;11.07
70437;BME280;57877;39.750;-104.894;2024-02-26T03:38:06;83151.75;;;11.85;10.98
70437;BME280;57877;39.750;-104.894;2024-02-26T03:40:32;83152.07;;;11.11;11.34
70437;BME280;57877;39.750;-104.894;2024-02-26T03:42:58;83155.78;;;12.04;11.06
70437;BME280;57877;39.750;-104.894;2024-02-26T03:45:24;83149.90;;;11.32;11.10
70437;BME280;57877;39.750;-104.894;2024-02-26T03:47:50;83150.56;;;10.95;11.34
70437;BME280;57877;39.750;-104.894;2024-02-26T03:50:16;83150.60;;;10.74;11.43
70437;BME280;57877;39.750;-104.894;2024-02-26T03:52:42;83156.94;;;11.60;11.17
70437;BME280;57877;39.750;-104.894;2024-02-26T03:55:08;83154.35;;;12.23;10.71
70437;BME280;57877;39.750;-104.894;2024-02-26T03:57:34;83153.23;;;11.39;11.01
70437;BME280;57877;39.750;-104.894;2024-02-26T03:59:59;83156.15;;;12.41;10.65
70437;BME280;57877;39.750;-104.894;2024-02-26T04:02:25;83152.23;;;12.60;10.31
70437;BME280;57877;39.750;-104.894;2024-02-26T04:04:52;83146.07;;;13.15;10.07
70437;BME280;57877;39.750;-104.894;2024-02-26T04:07:18;83145.71;;;12.29;10.46
70437;BME280;57877;39.750;-104.894;2024-02-26T04:12:10;83148.87;;;12.27;10.42
70437;BME280;57877;39.750;-104.894;2024-02-26T04:14:36;83146.64;;;12.48;10.41
70437;BME280;57877;39.750;-104.894;2024-02-26T04:17:03;83147.87;;;11.68;10.83
70437;BME280;57877;39.750;-104.894;2024-02-26T04:19:28;83143.37;;;11.65;10.79
70437;BME280;57877;39.750;-104.894;2024-02-26T04:21:54;83146.23;;;12.42;10.44
70437;BME280;57877;39.750;-104.894;2024-02-26T04:24:19;83142.91;;;12.63;10.30
70437;BME280;57877;39.750;-104.894;2024-02-26T04:26:45;83140.05;;;13.16;10.14
70437;BME280;57877;39.750;-104.894;2024-02-26T04:29:11;83143.80;;;12.50;10.18
70437;BME280;57877;39.750;-104.894;2024-02-26T04:31:38;83140.71;;;12.72;10.09
70437;BME280;57877;39.750;-104.894;2024-02-26T04:34:03;83136.42;;;13.11;9.86
70437;BME280;57877;39.750;-104.894;2024-02-26T04:36:29;83135.74;;;11.62;10.45
70437;BME280;57877;39.750;-104.894;2024-02-26T04:38:55;83135.82;;;11.75;10.53
70437;BME280;57877;39.750;-104.894;2024-02-26T04:41:21;83135.29;;;12.60;10.32
70437;BME280;57877;39.750;-104.894;2024-02-26T04:43:46;83130.39;;;12.65;10.30
70437;BME280;57877;39.750;-104.894;2024-02-26T04:46:13;83136.94;;;11.48;10.68
70437;BME280;57877;39.750;-104.894;2024-02-26T04:48:38;83132.78;;;12.57;10.30
70437;BME280;57877;39.750;-104.894;2024-02-26T04:51:04;83128.75;;;11.88;10.59
70437;BME280;57877;39.750;-104.894;2024-02-26T04:53:30;83119.46;;;12.08;10.59
70437;BME280;57877;39.750;-104.894;2024-02-26T04:55:56;83129.73;;;11.69;10.81
70437;BME280;57877;39.750;-104.894;2024-02-26T04:58:22;83125.66;;;12.16;10.57
70437;BME280;57877;39.750;-104.894;2024-02-26T05:00:48;83115.85;;;12.06;10.59
70437;BME280;57877;39.750;-104.894;2024-02-26T05:03:14;83120.49;;;11.22;11.04
70437;BME280;57877;39.750;-104.894;2024-02-26T05:05:40;83119.19;;;11.60;10.92
70437;BME280;57877;39.750;-104.894;2024-02-26T05:08:06;83117.42;;;10.89;11.17
70437;BME280;57877;39.750;-104.894;2024-02-26T05:10:31;83114.59;;;11.39;11.10
70437;BME280;57877;39.750;-104.894;2024-02-26T05:12:57;83106.68;;;10.91;11.43
70437;BME280;57877;39.750;-104.894;2024-02-26T05:15:23;83098.54;;;11.00;11.34
70437;BME280;57877;39.750;-104.894;2024-02-26T05:17:49;83105.51;;;11.66;11.07
70437;BME280;57877;39.750;-104.894;2024-02-26T05:20:15;83095.80;;;11.65;11.11
70437;BME280;57877;39.750;-104.894;2024-02-26T05:22:42;83089.52;;;11.60;10.95
70437;BME280;57877;39.750;-104.894;2024-02-26T05:25:07;83085.53;;;10.87;11.23
70437;BME280;57877;39.750;-104.894;2024-02-26T05:27:33;83084.91;;;10.51;11.61
70437;BME280;57877;39.750;-104.894;2024-02-26T05:29:59;83083.72;;;10.82;11.58
70437;BME280;57877;39.750;-104.894;2024-02-26T05:32:25;83078.96;;;11.64;11.23
70437;BME280;57877;39.750;-104.894;2024-02-26T05:34:51;83074.52;;;11.32;11.36
70437;BME280;57877;39.750;-104.894;2024-02-26T05:37:17;83076.63;;;11.74;11.13
70437;BME280;57877;39.750;-104.894;2024-02-26T05:39:43;83070.78;;;10.45;11.53
70437;BME280;57877;39.750;-104.894;2024-02-26T05:42:09;83054.56;;;10.63;11.66
70437;BME280;57877;39.750;-104.894;2024-02-26T05:44:35;83056.46;;;10.89;11.57
70437;BME280;57877;39.750;-104.894;2024-02-26T05:47:00;83057.46;;;11.03;11.60
70437;BME280;57877;39.750;-104.894;2024-02-26T05:49:26;83053.46;;;10.18;11.92
70437;BME280;57877;39.750;-104.894;2024-02-26T05:51:52;83052.96;;;10.04;12.08
70437;BME280;57877;39.750;-104.894;2024-02-26T05:54:18;83042.86;;;10.15;12.12
70437;BME280;57877;39.750;-104.894;2024-02-26T05:56:44;83037.05;;;9.16;12.50
70437;BME280;57877;39.750;-104.894;2024-02-26T05:59:10;83036.82;;;10.37;12.16
70437;BME280;57877;39.750;-104.894;2024-02-26T06:01:36;83036.46;;;11.43;11.65
70437;BME280;57877;39.750;-104.894;2024-02-26T06:04:07;83034.53;;;10.07;12.17
70437;BME280;57877;39.750;-104.894;2024-02-26T06:06:28;83036.80;;;9.73;12.48
70437;BME280;57877;39.750;-104.894;2024-02-26T06:08:54;83032.18;;;8.93;13.11
70437;BME280;57877;39.750;-104.894;2024-02-26T06:11:20;83023.86;;;9.22;12.98
70437;BME280;57877;39.750;-104.894;2024-02-26T06:13:46;83028.56;;;9.00;13.12
70437;BME280;57877;39.750;-104.894;2024-02-26T06:16:12;83019.52;;;9.72;12.86
70437;BME280;57877;39.750;-104.894;2024-02-26T06:18:38;83012.67;;;9.25;13.20
70437;BME280;57877;39.750;-104.894;2024-02-26T06:21:04;83017.31;;;8.71;13.62
70437;BME280;57877;39.750;-104.894;2024-02-26T06:23:30;83019.28;;;8.65;13.76
70437;BME280;57877;39.750;-104.894;2024-02-26T06:25:56;83018.57;;;9.09;13.58
70437;BME280;57877;39.750;-104.894;2024-02-26T06:28:22;83017.94;;;8.78;13.73
70437;BME280;57877;39.750;-104.894;2024-02-26T06:30:48;83018.93;;;8.93;13.45
70437;BME280;57877;39.750;-104.894;2024-02-26T06:33:14;83010.36;;;8.62;13.78
70437;BME280;57877;39.750;-104.894;2024-02-26T06:35:40;83013.99;;;9.30;13.45
70437;BME280;57877;39.750;-104.894;2024-02-26T06:38:06;83005.46;;;8.81;14.05
70437;BME280;57877;39.750;-104.894;2024-02-26T06:40:32;83001.70;;;9.22;13.79
70437;BME280;57877;39.750;-104.894;2024-02-26T06:42:58;83003.81;;;9.52;13.55
70437;BME280;57877;39.750;-104.894;2024-02-26T06:45:24;82997.46;;;9.16;13.65
70437;BME280;57877;39.750;-104.894;2024-02-26T06:47:50;82994.81;;;9.06;13.83
70437;BME280;57877;39.750;-104.894;2024-02-26T06:50:16;82996.28;;;8.63;14.18
70437;BME280;57877;39.750;-104.894;2024-02-26T06:52:44;82989.36;;;9.30;13.70
70437;BME280;57877;39.750;-104.894;2024-02-26T06:55:08;82989.70;;;9.40;13.86
70437;BME280;57877;39.750;-104.894;2024-02-26T06:57:34;82994.54;;;9.90;13.63
70437;BME280;57877;39.750;-104.894;2024-02-26T06:59:59;82994.08;;;9.13;13.96
70437;BME280;57877;39.750;-104.894;2024-02-26T07:02:26;82992.25;;;9.50;13.62
70437;BME280;57877;39.750;-104.894;2024-02-26T07:04:51;82985.66;;;8.96;13.74
70437;BME280;57877;39.750;-104.894;2024-02-26T07:07:17;82992.04;;;8.25;14.36
70437;BME280;57877;39.750;-104.894;2024-02-26T07:09:43;82984.92;;;8.87;14.26
70437;BME280;57877;39.750;-104.894;2024-02-26T07:12:09;82975.85;;;8.73;14.49
70437;BME280;57877;39.750;-104.894;2024-02-26T07:14:35;82991.99;;;8.78;14.32
70437;BME280;57877;39.750;-104.894;2024-02-26T07:17:01;82984.51;;;8.80;14.42
70437;BME280;57877;39.750;-104.894;2024-02-26T07:19:27;82983.95;;;8.87;14.44
70437;BME280;57877;39.750;-104.894;2024-02-26T07:21:53;82984.04;;;8.38;14.79
70437;BME280;57877;39.750;-104.894;2024-02-26T07:24:19;82988.49;;;8.84;14.64
70437;BME280;57877;39.750;-104.894;2024-02-26T07:26:45;82987.51;;;8.40;14.82
70437;BME280;57877;39.750;-104.894;2024-02-26T07:29:11;82983.73;;;8.33;14.85
70437;BME280;57877;39.750;-104.894;2024-02-26T07:31:37;82987.46;;;8.32;15.18
70437;BME280;57877;39.750;-104.894;2024-02-26T07:34:03;82977.03;;;8.08;15.15
70437;BME280;57877;39.750;-104.894;2024-02-26T07:36:29;82982.57;;;8.58;15.13
70437;BME280;57877;39.750;-104.894;2024-02-26T07:38:55;82977.24;;;8.56;15.11
70437;BME280;57877;39.750;-104.894;2024-02-26T07:41:21;82981.88;;;8.47;15.08
70437;BME280;57877;39.750;-104.894;2024-02-26T07:43:47;82980.82;;;8.19;15.12
70437;BME280;57877;39.750;-104.894;2024-02-26T07:46:13;82973.85;;;8.40;15.15
70437;BME280;57877;39.750;-104.894;2024-02-26T07:48:39;82978.09;;;8.27;15.19
70437;BME280;57877;39.750;-104.894;2024-02-26T07:51:05;82973.32;;;8.29;15.21
70437;BME280;57877;39.750;-104.894;2024-02-26T07:53:31;82971.22;;;8.52;14.93
70437;BME280;57877;39.750;-104.894;2024-02-26T07:55:57;82960.92;;;7.61;15.27
70437;BME280;57877;39.750;-104.894;2024-02-26T07:58:24;82964.09;;;9.08;14.67
70437;BME280;57877;39.750;-104.894;2024-02-26T08:00:49;82968.21;;;8.38;14.80
70437;BME280;57877;39.750;-104.894;2024-02-26T08:03:15;82964.70;;;8.52;14.93
70437;BME280;57877;39.750;-104.894;2024-02-26T08:05:41;82968.36;;;8.41;15.08
70437;BME280;57877;39.750;-104.894;2024-02-26T08:08:07;82960.63;;;7.47;15.80
70437;BME280;57877;39.750;-104.894;2024-02-26T08:10:33;82962.02;;;8.36;15.35
70437;BME280;57877;39.750;-104.894;2024-02-26T08:12:59;82959.47;;;8.98;14.90
70437;BME280;57877;39.750;-104.894;2024-02-26T08:15:25;82956.08;;;8.94;14.79
70437;BME280;57877;39.750;-104.894;2024-02-26T08:17:56;82955.32;;;8.25;15.13
70437;BME280;57877;39.750;-104.894;2024-02-26T08:20:17;82953.91;;;8.20;15.35
70437;BME280;57877;39.750;-104.894;2024-02-26T08:22:48;82955.43;;;8.04;15.47
70437;BME280;57877;39.750;-104.894;2024-02-26T08:25:09;82953.83;;;8.53;15.25
70437;BME280;57877;39.750;-104.894;2024-02-26T08:27:36;82952.47;;;8.05;15.52
70437;BME280;57877;39.750;-104.894;2024-02-26T08:30:01;82953.12;;;8.11;15.58
70437;BME280;57877;39.750;-104.894;2024-02-26T08:32:27;82951.99;;;7.76;15.77
70437;BME280;57877;39.750;-104.894;2024-02-26T08:34:52;82946.41;;;7.35;15.96
70437;BME280;57877;39.750;-104.894;2024-02-26T08:37:24;82944.09;;;7.63;15.90
70437;BME280;57877;39.750;-104.894;2024-02-26T08:39:44;82937.84;;;8.26;15.49
70437;BME280;57877;39.750;-104.894;2024-02-26T08:42:11;82935.89;;;8.18;15.56
70437;BME280;57877;39.750;-104.894;2024-02-26T08:44:36;82932.99;;;8.99;15.20
70437;BME280;57877;39.750;-104.894;2024-02-26T08:47:02;82932.01;;;8.11;15.48
70437;BME280;57877;39.750;-104.894;2024-02-26T08:49:28;82935.81;;;7.75;15.65
70437;BME280;57877;39.750;-104.894;2024-02-26T08:51:54;82936.96;;;7.99;15.55
70437;BME280;57877;39.750;-104.894;2024-02-26T08:54:20;82935.73;;;7.83;15.70
70437;BME280;57877;39.750;-104.894;2024-02-26T08:56:46;82935.29;;;7.97;15.54
70437;BME280;57877;39.750;-104.894;2024-02-26T08:59:12;82922.68;;;7.13;16.25
70437;BME280;57877;39.750;-104.894;2024-02-26T09:01:38;82923.51;;;8.26;15.73
70437;BME280;57877;39.750;-104.894;2024-02-26T09:04:04;82919.18;;;7.69;15.87
70437;BME280;57877;39.750;-104.894;2024-02-26T09:06:30;82918.46;;;7.63;16.01
70437;BME280;57877;39.750;-104.894;2024-02-26T09:08:56;82912.48;;;7.49;16.41
70437;BME280;57877;39.750;-104.894;2024-02-26T09:11:22;82908.36;;;7.47;16.36
70437;BME280;57877;39.750;-104.894;2024-02-26T09:13:48;82908.30;;;8.26;15.81
70437;BME280;57877;39.750;-104.894;2024-02-26T09:16:14;82909.34;;;7.28;16.31
70437;BME280;57877;39.750;-104.894;2024-02-26T09:18:40;82904.10;;;7.39;16.39
70437;BME280;57877;39.750;-104.894;2024-02-26T09:21:07;82903.98;;;7.49;16.50
70437;BME280;57877;39.750;-104.894;2024-02-26T09:23:37;82901.40;;;7.63;16.42
70437;BME280;57877;39.750;-104.894;2024-02-26T09:25:58;82899.96;;;7.57;16.59
70437;BME280;57877;39.750;-104.894;2024-02-26T09:28:24;82898.61;;;7.19;16.72
70437;BME280;57877;39.750;-104.894;2024-02-26T09:30:50;82894.78;;;7.49;16.73
70437;BME280;57877;39.750;-104.894;2024-02-26T09:33:16;82891.91;;;7.16;17.02
70437;BME280;57877;39.750;-104.894;2024-02-26T09:35:42;82886.89;;;7.11;17.36
70437;BME280;57877;39.750;-104.894;2024-02-26T09:38:09;82890.83;;;6.93;17.41
70437;BME280;57877;39.750;-104.894;2024-02-26T09:40:34;82885.28;;;8.10;16.60
70437;BME280;57877;39.750;-104.894;2024-02-26T09:43:01;82879.59;;;7.35;17.12
70437;BME280;57877;39.750;-104.894;2024-02-26T09:45:26;82873.28;;;6.78;17.15
70437;BME280;57877;39.750;-104.894;2024-02-26T09:47:52;82874.34;;;7.38;17.24
70437;BME280;57877;39.750;-104.894;2024-02-26T09:50:18;82872.49;;;7.52;16.83
70437;BME280;57877;39.750;-104.894;2024-02-26T09:52:44;82871.89;;;8.37;16.38
70437;BME280;57877;39.750;-104.894;2024-02-26T09:55:10;82868.07;;;7.97;16.58
70437;BME280;57877;39.750;-104.894;2024-02-26T09:57:37;82864.11;;;6.72;17.40
70437;BME280;57877;39.750;-104.894;2024-02-26T10:00:03;82866.44;;;7.66;16.91
70437;BME280;57877;39.750;-104.894;2024-02-26T10:02:28;82865.04;;;7.46;17.09
70437;BME280;57877;39.750;-104.894;2024-02-26T10:04:54;82863.18;;;8.36;16.58
70437;BME280;57877;39.750;-104.894;2024-02-26T10:07:20;82862.14;;;8.71;16.40
70437;BME280;57877;39.750;-104.894;2024-02-26T10:09:46;82850.27;;;8.00;16.77
70437;BME280;57877;39.750;-104.894;2024-02-26T10:12:12;82850.71;;;9.27;16.42
70437;BME280;57877;39.750;-104.894;2024-02-26T10:14:38;82840.75;;;8.10;17.36
70437;BME280;57877;39.750;-104.894;2024-02-26T10:17:06;82834.19;;;7.47;18.11
70437;BME280;57877;39.750;-104.894;2024-02-26T10:19:30;82833.98;;;8.10;18.04
70437;BME280;57877;39.750;-104.894;2024-02-26T10:22:02;82835.68;;;7.27;19.34
70437;BME280;57877;39.750;-104.894;2024-02-26T10:24:22;82835.75;;;7.01;19.87
70437;BME280;57877;39.750;-104.894;2024-02-26T10:26:48;82827.05;;;6.63;20.67
70437;BME280;57877;39.750;-104.894;2024-02-26T10:29:14;82823.02;;;6.74;20.56
70437;BME280;57877;39.750;-104.894;2024-02-26T10:31:42;82820.01;;;7.33;19.91
70437;BME280;57877;39.750;-104.894;2024-02-26T10:34:07;82819.38;;;6.68;20.25
70437;BME280;57877;39.750;-104.894;2024-02-26T10:36:34;82816.74;;;7.13;20.38
70437;BME280;57877;39.750;-104.894;2024-02-26T10:38:58;82817.01;;;7.48;20.12
70437;BME280;57877;39.750;-104.894;2024-02-26T10:41:24;82816.42;;;6.96;20.46
70437;BME280;57877;39.750;-104.894;2024-02-26T10:43:50;82802.96;;;7.36;20.17
70437;BME280;57877;39.750;-104.894;2024-02-26T10:46:16;82801.27;;;7.00;20.38
70437;BME280;57877;39.750;-104.894;2024-02-26T10:48:49;82799.37;;;6.63;20.50
70437;BME280;57877;39.750;-104.894;2024-02-26T10:51:09;82800.37;;;7.15;20.16
70437;BME280;57877;39.750;-104.894;2024-02-26T10:53:34;82798.81;;;6.73;20.43
70437;BME280;57877;39.750;-104.894;2024-02-26T10:56:03;82803.28;;;7.01;20.27
70437;BME280;57877;39.750;-104.894;2024-02-26T10:58:26;82800.31;;;6.83;20.41
70437;BME280;57877;39.750;-104.894;2024-02-26T11:00:53;82794.82;;;7.16;20.02
70437;BME280;57877;39.750;-104.894;2024-02-26T11:03:19;82795.92;;;6.90;20.53
70437;BME280;57877;39.750;-104.894;2024-02-26T11:05:44;82794.98;;;6.23;21.13
70437;BME280;57877;39.750;-104.894;2024-02-26T11:08:11;82801.02;;;7.51;20.07
70437;BME280;57877;39.750;-104.894;2024-02-26T11:10:36;82798.81;;;6.82;20.80
70437;BME280;57877;39.750;-104.894;2024-02-26T11:13:03;82799.05;;;6.81;20.91
70437;BME280;57877;39.750;-104.894;2024-02-26T11:15:29;82797.54;;;6.87;20.75
70437;BME280;57877;39.750;-104.894;2024-02-26T11:17:54;82796.92;;;6.89;20.88
70437;BME280;57877;39.750;-104.894;2024-02-26T11:20:20;82794.05;;;7.47;20.20
70437;BME280;57877;39.750;-104.894;2024-02-26T11:22:46;82787.17;;;7.24;20.59
70437;BME280;57877;39.750;-104.894;2024-02-26T11:25:12;82784.86;;;6.27;21.53
70437;BME280;57877;39.750;-104.894;2024-02-26T11:27:39;82789.21;;;6.19;21.96
70437;BME280;57877;39.750;-104.894;2024-02-26T11:30:05;82784.96;;;7.24;21.40
70437;BME280;57877;39.750;-104.894;2024-02-26T11:32:31;82789.50;;;6.91;21.92
70437;BME280;57877;39.750;-104.894;2024-02-26T11:34:56;82787.77;;;6.09;22.62
70437;BME280;57877;39.750;-104.894;2024-02-26T11:37:22;82787.88;;;6.68;22.38
70437;BME280;57877;39.750;-104.894;2024-02-26T11:39:49;82797.18;;;5.94;23.29
70437;BME280;57877;39.750;-104.894;2024-02-26T11:42:16;82797.47;;;7.06;23.00
70437;BME280;57877;39.750;-104.894;2024-02-26T11:44:40;82796.31;;;6.16;23.96
70437;BME280;57877;39.750;-104.894;2024-02-26T11:47:11;82792.95;;;6.62;23.82
70437;BME280;57877;39.750;-104.894;2024-02-26T11:49:32;82794.91;;;6.03;24.21
70437;BME280;57877;39.750;-104.894;2024-02-26T11:51:59;82794.08;;;6.07;24.65
70437;BME280;57877;39.750;-104.894;2024-02-26T11:56:51;82789.78;;;6.37;24.71
70437;BME280;57877;39.750;-104.894;2024-02-26T12:01:44;82793.19;;;5.99;25.48
70437;BME280;57877;39.750;-104.894;2024-02-26T12:04:12;82799.48;;;6.44;25.26
70437;BME280;57877;39.750;-104.894;2024-02-26T12:06:40;82796.46;;;6.35;25.38
70437;BME280;57877;39.750;-104.894;2024-02-26T12:09:00;82787.42;;;6.84;25.22
70437;BME280;57877;39.750;-104.894;2024-02-26T12:11:28;82794.76;;;6.78;25.33
70437;BME280;57877;39.750;-104.894;2024-02-26T12:13:52;82793.67;;;6.77;25.30
70437;BME280;57877;39.750;-104.894;2024-02-26T12:18:45;82796.04;;;7.32;24.98
70437;BME280;57877;39.750;-104.894;2024-02-26T12:21:10;82803.02;;;6.98;25.33
70437;BME280;57877;39.750;-104.894;2024-02-26T12:23:36;82809.98;;;5.98;26.41
70437;BME280;57877;39.750;-104.894;2024-02-26T12:26:02;82803.69;;;7.24;25.53
70437;BME280;57877;39.750;-104.894;2024-02-26T12:28:29;82792.61;;;6.93;26.44
70437;BME280;57877;39.750;-104.894;2024-02-26T12:30:54;82793.21;;;6.35;27.26
70437;BME280;57877;39.750;-104.894;2024-02-26T12:33:20;82795.89;;;6.45;27.06
70437;BME280;57877;39.750;-104.894;2024-02-26T12:35:45;82790.64;;;6.32;27.36
70437;BME280;57877;39.750;-104.894;2024-02-26T12:38:10;82801.96;;;5.71;27.89
70437;BME280;57877;39.750;-104.894;2024-02-26T12:40:36;82806.43;;;6.51;27.49